Time;durP1;ratioP1;P1;durP2;ratioP2;P2;SDS_P1;SDS_P2;PMS_P1;PMS_P2;Temp;Humidity;BMP_temperature;BMP_pressure;BME280_temperature;BME280_humidity;BME280_pressure;Samples;Min_cycle;Max_cycle;Signal;HPM_P1;HPM_P2
2021/12/31 00:00:38;;;;;;;16.30;6.78;;;9.90;96.70;;;;;;5080082;28;20036;-73
2021/12/31 00:03:06;;;;;;;14.75;6.05;;;9.90;96.70;;;;;;5077077;28;20527;-73
2021/12/31 00:05:34;;;;;;;10.63;6.18;;;9.80;96.70;;;;;;5060631;28;20089;-73
2021/12/31 00:08:02;;;;;;;12.85;6.72;;;9.80;96.70;;;;;;5073823;28;20039;-73
2021/12/31 00:10:32;;;;;;;7.32;5.97;;;9.80;96.70;;;;;;5079909;28;20044;-73
2021/12/31 00:13:00;;;;;;;10.02;6.28;;;9.90;96.70;;;;;;5079088;28;20511;-73
2021/12/31 00:15:28;;;;;;;15.48;6.70;;;10.10;96.70;;;;;;5077712;28;20047;-73
2021/12/31 00:17:56;;;;;;;12.52;6.60;;;10.10;96.70;;;;;;5077366;28;20497;-73
2021/12/31 00:20:25;;;;;;;12.15;6.53;;;10.00;96.70;;;;;;5078283;28;20047;-73
2021/12/31 00:25:25;;;;;;;8.82;7.03;;;10.00;96.70;;;;;;5074782;28;20147;-73
2021/12/31 00:27:54;;;;;;;17.48;7.45;;;10.00;96.70;;;;;;5077281;28;20105;-73
2021/12/31 00:30:23;;;;;;;18.50;6.85;;;10.00;96.70;;;;;;5076451;28;20105;-73
2021/12/31 00:32:51;;;;;;;13.32;7.18;;;10.00;96.70;;;;;;5075639;28;20040;-73
2021/12/31 00:35:21;;;;;;;9.75;6.00;;;9.90;96.70;;;;;;5075249;28;20405;-72
2021/12/31 00:37:49;;;;;;;14.23;6.90;;;9.80;96.70;;;;;;5079648;28;20044;-73
2021/12/31 00:40:18;;;;;;;11.32;5.93;;;9.80;96.70;;;;;;5079610;28;20036;-73
2021/12/31 00:42:47;;;;;;;9.40;6.35;;;9.80;96.70;;;;;;5075126;28;20040;-73
2021/12/31 00:45:20;;;;;;;12.13;6.63;;;9.80;96.70;;;;;;5076075;28;20519;-73
2021/12/31 00:47:49;;;;;;;11.65;6.00;;;9.80;96.70;;;;;;5074398;28;20119;-72
2021/12/31 00:50:17;;;;;;;18.25;7.07;;;9.70;96.70;;;;;;5075018;28;20493;-73
2021/12/31 00:52:45;;;;;;;9.57;5.93;;;9.70;96.70;;;;;;5080269;28;20109;-72
2021/12/31 00:55:14;;;;;;;8.43;5.90;;;9.70;96.70;;;;;;5079719;28;20464;-72
2021/12/31 00:57:42;;;;;;;10.82;7.03;;;9.70;96.70;;;;;;5075348;28;20432;-73
2021/12/31 01:00:13;;;;;;;10.65;6.25;;;9.70;96.70;;;;;;5076244;28;20044;-73
2021/12/31 01:02:45;;;;;;;10.70;6.03;;;9.70;96.70;;;;;;5076610;28;20409;-73
2021/12/31 01:05:15;;;;;;;10.10;6.15;;;9.70;96.70;;;;;;5073202;28;20112;-73
2021/12/31 01:07:43;;;;;;;14.32;6.88;;;9.80;96.70;;;;;;5077787;28;20063;-73
2021/12/31 01:10:15;;;;;;;10.02;6.50;;;9.70;96.70;;;;;;5070187;28;20051;-73
2021/12/31 01:12:44;;;;;;;9.38;6.20;;;9.70;96.70;;;;;;5077646;28;20035;-73
2021/12/31 01:15:21;;;;;;;9.63;6.38;;;9.80;96.70;;;;;;5075816;28;20558;-73
2021/12/31 01:20:24;;;;;;;7.80;6.60;;;9.60;96.70;;;;;;5073314;28;20167;-73
2021/12/31 01:22:52;;;;;;;7.10;6.25;;;9.60;96.70;;;;;;5075562;28;20036;-73
2021/12/31 01:25:20;;;;;;;13.70;7.10;;;9.60;96.70;;;;;;5075551;28;20151;-73
2021/12/31 01:27:48;;;;;;;12.95;6.40;;;9.60;96.70;;;;;;5076711;28;20036;-73
2021/12/31 01:30:16;;;;;;;6.78;5.97;;;9.60;96.70;;;;;;5074004;28;20040;-72
2021/12/31 01:32:51;;;;;;;10.65;5.30;;;9.60;96.70;;;;;;5077353;28;20071;-73
2021/12/31 01:35:19;;;;;;;8.85;5.78;;;9.60;96.70;;;;;;5077297;28;20110;-73
2021/12/31 01:37:47;;;;;;;9.65;5.57;;;9.50;96.70;;;;;;5057493;28;20052;-73
2021/12/31 01:40:15;;;;;;;9.55;5.45;;;9.50;96.70;;;;;;5077104;28;20032;-73
2021/12/31 01:42:43;;;;;;;5.82;5.05;;;9.40;96.70;;;;;;5077142;28;21006;-73
2021/12/31 01:45:15;;;;;;;10.55;4.80;;;9.50;96.70;;;;;;5078342;28;20050;-73
2021/12/31 01:47:56;;;;;;;6.03;4.57;;;9.60;96.70;;;;;;5077038;28;20047;-72
2021/12/31 01:50:27;;;;;;;7.70;4.57;;;9.60;96.70;;;;;;5075196;28;20488;-73
2021/12/31 01:52:56;;;;;;;7.00;4.50;;;9.50;96.70;;;;;;5077822;28;20093;-72
2021/12/31 01:55:28;;;;;;;6.90;4.00;;;9.50;96.70;;;;;;5076965;28;20056;-73
2021/12/31 01:57:56;;;;;;;4.75;3.90;;;9.50;96.70;;;;;;5078647;28;20032;-73
2021/12/31 02:00:24;;;;;;;4.75;3.95;;;9.40;96.70;;;;;;5075230;28;20067;-73
2021/12/31 02:02:52;;;;;;;5.13;4.13;;;9.30;96.70;;;;;;5075115;28;20032;-72
2021/12/31 02:05:21;;;;;;;4.85;4.03;;;9.20;96.70;;;;;;5092934;28;20131;-73
2021/12/31 02:07:51;;;;;;;3.92;3.53;;;9.20;96.70;;;;;;5077581;28;20055;-72
2021/12/31 02:10:19;;;;;;;4.50;3.95;;;9.20;96.70;;;;;;5079705;28;20123;-73
2021/12/31 02:12:49;;;;;;;4.25;3.85;;;9.30;96.70;;;;;;5074520;28;20130;-73
2021/12/31 02:15:18;;;;;;;4.45;3.97;;;9.30;96.70;;;;;;5076294;28;20131;-73
2021/12/31 02:17:48;;;;;;;7.88;4.68;;;9.20;96.70;;;;;;5074776;28;20321;-73
2021/12/31 02:20:19;;;;;;;5.75;4.50;;;9.10;96.70;;;;;;5077721;28;20044;-72
2021/12/31 02:23:06;;;;;;;5.93;4.60;;;9.00;96.70;;;;;;5077184;28;20064;-72
2021/12/31 02:25:36;;;;;;;5.35;4.85;;;9.00;96.70;;;;;;5074685;28;20066;-72
2021/12/31 02:28:04;;;;;;;5.97;5.13;;;8.90;96.70;;;;;;5076620;28;20491;-72
2021/12/31 02:30:32;;;;;;;7.60;5.18;;;8.90;96.70;;;;;;5076461;28;20051;-72
2021/12/31 02:33:03;;;;;;;6.78;5.75;;;8.90;96.70;;;;;;5076442;28;20051;-72
2021/12/31 02:35:33;;;;;;;7.13;5.63;;;8.80;96.70;;;;;;5077235;28;20130;-72
2021/12/31 02:38:03;;;;;;;6.10;5.10;;;8.90;96.70;;;;;;5076135;28;20044;-72
2021/12/31 02:40:33;;;;;;;5.80;4.78;;;9.00;96.70;;;;;;5075938;28;20046;-71
2021/12/31 02:43:01;;;;;;;8.25;5.85;;;9.00;96.70;;;;;;5081303;28;20072;-72
2021/12/31 02:45:33;;;;;;;9.77;5.50;;;9.00;96.70;;;;;;5064442;28;20055;-71
2021/12/31 02:48:03;;;;;;;13.05;5.65;;;9.10;96.70;;;;;;5077449;28;20040;-72
2021/12/31 02:50:35;;;;;;;6.60;5.60;;;9.10;96.70;;;;;;5082883;28;20040;-72
2021/12/31 02:53:05;;;;;;;11.07;4.95;;;9.00;96.70;;;;;;5080374;28;20225;-71
2021/12/31 02:55:35;;;;;;;21.02;5.93;;;9.10;96.70;;;;;;5078507;28;20055;-72
2021/12/31 02:58:05;;;;;;;8.43;5.32;;;9.00;96.70;;;;;;5080616;28;20137;-72
2021/12/31 03:00:35;;;;;;;31.30;5.70;;;9.00;96.70;;;;;;5075362;28;20032;-72
2021/12/31 03:03:06;;;;;;;9.50;5.03;;;9.00;96.70;;;;;;5079614;28;20223;-72
2021/12/31 03:05:38;;;;;;;13.38;5.00;;;8.80;96.70;;;;;;5078221;28;20050;-72
2021/12/31 03:08:10;;;;;;;12.32;4.80;;;8.80;96.70;;;;;;5079873;28;20299;-72
2021/12/31 03:10:39;;;;;;;9.23;4.40;;;8.90;96.70;;;;;;5078630;28;20047;-72
2021/12/31 03:13:09;;;;;;;6.00;4.32;;;8.90;96.70;;;;;;5079313;28;20044;-72
2021/12/31 03:15:38;;;;;;;13.57;4.07;;;9.00;96.70;;;;;;5064667;28;20051;-72
2021/12/31 03:18:07;;;;;;;6.10;3.50;;;8.90;96.70;;;;;;5082490;28;20116;-72
2021/12/31 03:20:41;;;;;;;3.95;3.33;;;8.90;96.70;;;;;;5081344;28;20588;-72
2021/12/31 03:23:10;;;;;;;6.10;3.33;;;9.00;96.70;;;;;;5082547;28;20036;-72
2021/12/31 03:25:38;;;;;;;10.40;3.63;;;9.00;96.70;;;;;;5078679;28;20051;-72
2021/12/31 03:28:06;;;;;;;9.02;3.22;;;8.90;96.70;;;;;;5093148;27;20135;-72
2021/12/31 03:30:34;;;;;;;7.93;3.22;;;8.80;96.70;;;;;;5076666;28;20089;-72
2021/12/31 03:33:03;;;;;;;9.60;2.90;;;8.80;96.70;;;;;;5079761;28;20066;-71
2021/12/31 03:35:31;;;;;;;7.95;3.67;;;8.70;96.70;;;;;;5078834;28;20151;-72
2021/12/31 03:38:00;;;;;;;19.30;3.47;;;8.80;96.70;;;;;;5080293;28;20040;-71
2021/12/31 03:40:28;;;;;;;9.30;3.20;;;8.70;96.70;;;;;;5079712;28;20160;-72
2021/12/31 03:42:57;;;;;;;5.18;3.47;;;8.70;96.70;;;;;;5078746;28;20064;-71
2021/12/31 03:45:25;;;;;;;7.07;3.80;;;8.80;96.70;;;;;;5077180;28;20048;-72
2021/12/31 03:47:53;;;;;;;6.53;3.65;;;8.80;96.70;;;;;;5075757;28;20036;-72
2021/12/31 03:50:22;;;;;;;6.55;3.50;;;8.80;96.70;;;;;;5078684;28;20082;-71
2021/12/31 03:52:50;;;;;;;4.25;3.08;;;8.80;96.70;;;;;;5070621;28;20033;-72
2021/12/31 03:55:20;;;;;;;12.75;3.25;;;8.80;96.70;;;;;;5074220;28;20131;-72
2021/12/31 03:57:48;;;;;;;8.27;3.22;;;8.80;96.70;;;;;;5080964;28;20493;-72
2021/12/31 04:00:17;;;;;;;14.43;3.95;;;8.70;96.70;;;;;;5078264;28;20085;-71
2021/12/31 04:02:45;;;;;;;5.40;3.55;;;8.70;96.70;;;;;;5077024;28;20511;-71
2021/12/31 04:05:13;;;;;;;9.50;3.60;;;8.70;96.70;;;;;;5073503;28;20662;-71
2021/12/31 04:07:42;;;;;;;7.43;3.50;;;8.70;96.70;;;;;;5077237;28;20036;-72
2021/12/31 04:10:10;;;;;;;17.00;4.50;;;8.70;96.70;;;;;;5081004;28;20069;-71
2021/12/31 04:12:40;;;;;;;4.32;3.40;;;8.80;96.70;;;;;;5073249;28;20509;-71
2021/12/31 04:15:09;;;;;;;6.82;3.20;;;8.80;96.70;;;;;;5077134;28;20049;-72
2021/12/31 04:17:39;;;;;;;10.05;3.90;;;8.70;96.70;;;;;;5071752;28;20567;-71
2021/12/31 04:20:14;;;;;;;24.70;4.43;;;8.80;96.70;;;;;;5094224;28;20355;-72
2021/12/31 04:22:50;;;;;;;8.32;3.58;;;8.90;96.70;;;;;;5075256;28;20050;-71
2021/12/31 04:25:19;;;;;;;13.38;3.78;;;8.60;96.70;;;;;;5078977;28;20493;-72
2021/12/31 04:27:49;;;;;;;10.27;3.42;;;8.60;96.70;;;;;;5073413;28;20044;-71
2021/12/31 04:30:18;;;;;;;17.58;4.85;;;8.60;96.70;;;;;;5077099;28;20447;-71
2021/12/31 04:32:46;;;;;;;8.73;3.60;;;8.50;96.70;;;;;;5078012;28;20139;-72
2021/12/31 04:35:17;;;;;;;11.02;3.80;;;8.50;96.70;;;;;;5079878;28;20101;-71
2021/12/31 04:37:45;;;;;;;7.80;3.33;;;8.50;96.70;;;;;;5080452;28;20163;-71
2021/12/31 04:40:14;;;;;;;14.60;3.83;;;8.60;96.70;;;;;;5074898;28;20497;-72
2021/12/31 04:42:43;;;;;;;9.27;3.17;;;8.60;96.70;;;;;;5076156;28;20064;-71
2021/12/31 04:45:13;;;;;;;11.85;3.47;;;8.60;96.70;;;;;;5077268;28;20115;-72
2021/12/31 04:47:42;;;;;;;15.00;3.42;;;8.70;96.70;;;;;;5078595;28;20093;-72
2021/12/31 04:50:10;;;;;;;4.07;3.05;;;8.60;96.70;;;;;;5080965;28;20433;-72
2021/12/31 04:52:39;;;;;;;3.55;3.00;;;8.60;96.70;;;;;;5095502;28;20042;-72
2021/12/31 04:55:09;;;;;;;6.47;2.95;;;8.60;96.70;;;;;;5089948;28;20044;-72
2021/12/31 04:57:37;;;;;;;8.13;2.72;;;8.60;96.70;;;;;;5077709;28;20050;-71
2021/12/31 05:00:06;;;;;;;2.88;2.40;;;8.60;96.70;;;;;;5073777;28;20036;-72
2021/12/31 05:02:37;;;;;;;6.80;3.10;;;8.50;96.70;;;;;;5058040;28;20517;-72
2021/12/31 05:05:06;;;;;;;3.78;2.47;;;8.50;96.70;;;;;;5074213;28;20040;-72
2021/12/31 05:07:34;;;;;;;2.88;2.67;;;8.40;96.70;;;;;;5060045;28;20536;-72
2021/12/31 05:10:03;;;;;;;6.18;2.50;;;8.40;96.70;;;;;;5073069;28;20086;-71
2021/12/31 05:12:33;;;;;;;2.78;2.50;;;8.30;96.70;;;;;;5078451;28;20127;-72
2021/12/31 05:15:02;;;;;;;4.25;2.33;;;8.20;96.70;;;;;;5072459;28;20044;-72
2021/12/31 05:17:30;;;;;;;3.80;2.80;;;8.20;96.70;;;;;;5078793;28;20042;-72
2021/12/31 05:20:00;;;;;;;3.50;2.40;;;8.10;96.70;;;;;;5079166;28;20146;-71
2021/12/31 05:22:28;;;;;;;3.47;2.97;;;8.10;96.70;;;;;;5062001;28;20051;-72
2021/12/31 05:24:57;;;;;;;2.78;2.58;;;8.20;96.70;;;;;;5077544;28;20052;-72
2021/12/31 05:27:25;;;;;;;3.40;2.60;;;8.30;96.70;;;;;;5075198;28;20134;-72
2021/12/31 05:29:53;;;;;;;2.58;2.38;;;8.30;96.70;;;;;;5077235;28;20052;-72
2021/12/31 05:32:21;;;;;;;5.38;2.85;;;8.20;96.70;;;;;;5077693;28;20234;-72
2021/12/31 05:34:49;;;;;;;2.85;2.65;;;8.00;96.70;;;;;;5075302;28;20086;-72
2021/12/31 05:37:18;;;;;;;3.85;2.67;;;7.90;96.70;;;;;;5074053;28;20595;-72
2021/12/31 05:39:47;;;;;;;3.13;2.83;;;7.80;96.70;;;;;;5074522;28;20392;-72
2021/12/31 05:42:15;;;;;;;4.07;2.50;;;7.80;96.70;;;;;;5063126;28;20366;-72
2021/12/31 05:44:44;;;;;;;5.25;3.30;;;7.80;96.70;;;;;;5074824;28;20059;-72
2021/12/31 05:47:12;;;;;;;2.95;2.40;;;7.80;96.70;;;;;;5063932;28;20048;-72
2021/12/31 05:49:41;;;;;;;3.30;2.45;;;7.90;96.70;;;;;;5074946;28;20043;-72
2021/12/31 05:52:09;;;;;;;2.90;2.60;;;7.90;96.70;;;;;;5075411;28;20150;-72
2021/12/31 05:54:39;;;;;;;3.10;2.80;;;8.10;96.70;;;;;;5077091;28;20147;-72
2021/12/31 05:57:07;;;;;;;3.47;3.10;;;8.00;96.70;;;;;;5075099;28;20042;-72
2021/12/31 05:59:35;;;;;;;3.55;2.88;;;7.80;96.70;;;;;;5072724;28;20434;-72
2021/12/31 06:02:03;;;;;;;4.65;3.00;;;7.90;96.70;;;;;;5076338;28;20063;-72
2021/12/31 06:04:31;;;;;;;4.60;2.55;;;7.90;96.70;;;;;;5075657;28;20516;-72
2021/12/31 06:07:00;;;;;;;3.85;3.00;;;7.80;96.70;;;;;;5079919;28;20042;-72
2021/12/31 06:09:29;;;;;;;3.30;2.63;;;7.70;96.70;;;;;;5072537;28;20048;-71
2021/12/31 06:12:00;;;;;;;2.50;2.30;;;7.80;96.70;;;;;;5078637;28;20049;-72
2021/12/31 06:14:30;;;;;;;2.80;2.50;;;7.80;96.70;;;;;;5057617;28;20136;-72
2021/12/31 06:17:06;;;;;;;2.75;2.25;;;7.90;96.70;;;;;;5091403;28;20048;-71
2021/12/31 06:19:35;;;;;;;3.47;3.17;;;7.90;96.70;;;;;;5074717;28;20044;-72
2021/12/31 06:22:03;;;;;;;3.45;2.95;;;8.00;96.70;;;;;;5077504;28;20044;-72
2021/12/31 06:24:32;;;;;;;3.75;3.33;;;7.90;96.70;;;;;;5076317;28;20532;-72
2021/12/31 06:27:01;;;;;;;3.33;3.03;;;8.00;96.70;;;;;;5075845;28;20032;-72
2021/12/31 06:29:29;;;;;;;2.95;2.65;;;8.00;96.70;;;;;;5074464;28;20047;-72
2021/12/31 06:31:57;;;;;;;4.15;2.70;;;8.00;96.70;;;;;;5078558;28;20060;-72
2021/12/31 06:34:26;;;;;;;3.95;2.72;;;8.10;96.70;;;;;;5073859;28;20144;-72
2021/12/31 06:36:54;;;;;;;2.45;2.25;;;8.10;96.70;;;;;;5075146;28;20052;-72
2021/12/31 06:39:25;;;;;;;2.53;2.28;;;8.00;96.70;;;;;;5075247;28;20122;-72
2021/12/31 06:41:53;;;;;;;2.30;2.10;;;8.00;96.70;;;;;;5072747;28;20040;-72
2021/12/31 06:44:23;;;;;;;3.05;2.10;;;7.90;96.70;;;;;;5075903;28;20036;-71
2021/12/31 06:46:52;;;;;;;3.90;1.77;;;7.80;96.70;;;;;;5077502;28;20158;-72
2021/12/31 06:49:20;;;;;;;2.92;2.08;;;7.90;96.70;;;;;;5075718;28;20042;-71
2021/12/31 06:51:48;;;;;;;1.83;1.65;;;7.90;96.70;;;;;;5075712;28;20058;-71
2021/12/31 06:54:17;;;;;;;2.10;1.90;;;7.90;96.70;;;;;;5073313;28;20046;-72
2021/12/31 06:56:45;;;;;;;2.47;1.50;;;7.80;96.70;;;;;;5075928;28;20052;-75
2021/12/31 06:59:13;;;;;;;3.13;1.85;;;7.90;96.70;;;;;;5090741;28;20041;-72
2021/12/31 07:01:43;;;;;;;2.90;2.03;;;7.90;96.70;;;;;;5091419;28;20243;-71
2021/12/31 07:04:12;;;;;;;2.22;2.03;;;7.90;96.70;;;;;;5077954;28;20497;-72
2021/12/31 07:06:40;;;;;;;3.28;2.40;;;7.80;96.70;;;;;;5058617;28;20535;-71
2021/12/31 07:09:08;;;;;;;4.57;3.00;;;7.70;96.70;;;;;;5078130;28;20040;-71
2021/12/31 07:11:37;;;;;;;2.85;2.10;;;7.80;96.70;;;;;;5077495;28;20055;-71
2021/12/31 07:14:05;;;;;;;2.95;2.03;;;7.80;96.70;;;;;;5072542;28;20052;-71
2021/12/31 07:16:33;;;;;;;4.88;2.65;;;7.80;96.70;;;;;;5076739;28;20142;-71
2021/12/31 07:19:03;;;;;;;3.65;2.42;;;7.80;96.70;;;;;;5080623;28;20067;-72
2021/12/31 07:21:31;;;;;;;4.10;2.60;;;7.80;96.70;;;;;;5077212;28;20337;-71
2021/12/31 07:23:59;;;;;;;2.72;2.20;;;7.80;96.70;;;;;;5080933;28;20052;-71
2021/12/31 07:26:27;;;;;;;4.55;2.65;;;7.80;96.70;;;;;;5080182;28;20147;-72
2021/12/31 07:28:55;;;;;;;4.38;2.60;;;7.90;96.70;;;;;;5078769;28;20583;-71
2021/12/31 07:31:23;;;;;;;2.88;2.63;;;7.80;96.70;;;;;;5075877;28;20032;-72
2021/12/31 07:33:52;;;;;;;3.47;2.55;;;7.80;96.70;;;;;;5079454;28;20119;-71
2021/12/31 07:36:21;;;;;;;5.40;2.55;;;7.80;96.70;;;;;;5075498;28;20047;-73
2021/12/31 07:38:58;;;;;;;7.85;3.78;;;7.80;96.70;;;;;;5075412;28;20048;-73
2021/12/31 07:41:27;;;;;;;5.53;2.80;;;7.90;96.70;;;;;;5073745;28;20048;-71
2021/12/31 07:43:55;;;;;;;4.32;3.17;;;7.80;96.70;;;;;;5077671;28;20048;-71
2021/12/31 07:46:23;;;;;;;3.97;2.60;;;7.80;96.70;;;;;;5079305;28;20047;-71
2021/12/31 07:48:52;;;;;;;2.30;1.90;;;8.00;96.70;;;;;;5063307;28;20040;-70
2021/12/31 07:51:21;;;;;;;4.65;2.72;;;8.10;96.70;;;;;;5076774;28;20139;-70
2021/12/31 07:53:49;;;;;;;6.00;3.17;;;8.10;96.70;;;;;;5074228;28;20489;-70
2021/12/31 07:56:19;;;;;;;7.15;4.18;;;8.10;96.70;;;;;;5078992;28;20051;-70
2021/12/31 07:58:48;;;;;;;7.07;4.78;;;8.10;96.70;;;;;;5076341;28;20047;-70
2021/12/31 08:01:17;;;;;;;6.53;5.05;;;8.20;96.70;;;;;;5079238;28;20059;-71
2021/12/31 08:03:46;;;;;;;7.45;5.78;;;8.30;96.70;;;;;;5076757;28;20101;-71
2021/12/31 08:06:14;;;;;;;8.07;6.55;;;8.30;96.70;;;;;;5080351;28;20416;-71
2021/12/31 08:08:43;;;;;;;9.38;5.18;;;8.30;96.70;;;;;;5078244;28;20036;-72
2021/12/31 08:11:12;;;;;;;10.43;5.97;;;8.40;96.70;;;;;;5077421;28;20377;-71
2021/12/31 08:13:40;;;;;;;8.00;5.43;;;8.40;96.70;;;;;;5077316;28;20041;-71
2021/12/31 08:16:08;;;;;;;7.18;5.60;;;8.50;96.70;;;;;;5078821;28;20500;-71
2021/12/31 08:18:36;;;;;;;7.43;5.03;;;8.50;96.70;;;;;;5077415;28;20336;-71
2021/12/31 08:21:06;;;;;;;5.45;4.57;;;8.50;96.70;;;;;;5079537;28;20044;-70
2021/12/31 08:23:34;;;;;;;5.68;3.97;;;8.60;96.70;;;;;;5075916;28;20044;-70
2021/12/31 08:26:05;;;;;;;6.05;3.58;;;8.60;96.70;;;;;;5078401;28;20048;-71
2021/12/31 08:28:33;;;;;;;6.60;4.88;;;8.70;96.70;;;;;;5075420;28;20634;-72
2021/12/31 08:31:01;;;;;;;4.88;3.92;;;8.80;96.70;;;;;;5078306;28;20412;-72
2021/12/31 08:33:29;;;;;;;5.88;3.60;;;8.80;96.70;;;;;;5076198;28;20374;-72
2021/12/31 08:35:57;;;;;;;4.03;3.50;;;8.90;96.70;;;;;;5060600;28;20588;-72
2021/12/31 08:38:26;;;;;;;3.08;2.78;;;8.90;96.70;;;;;;5077740;28;20474;-72
2021/12/31 08:40:54;;;;;;;2.97;2.67;;;8.90;96.70;;;;;;5091786;28;20032;-71
2021/12/31 08:43:25;;;;;;;4.30;2.90;;;9.00;96.70;;;;;;5074993;28;20110;-72
2021/12/31 08:45:53;;;;;;;2.65;2.17;;;9.10;96.70;;;;;;5076387;28;20036;-72
2021/12/31 08:48:22;;;;;;;2.75;2.47;;;9.20;96.70;;;;;;5077163;28;20367;-72
2021/12/31 08:50:50;;;;;;;2.78;2.40;;;9.20;96.70;;;;;;5077756;28;20067;-72
2021/12/31 08:53:18;;;;;;;2.65;2.45;;;9.30;96.70;;;;;;5075248;28;20036;-72
2021/12/31 08:55:46;;;;;;;5.70;2.38;;;9.40;96.70;;;;;;5076616;28;20134;-72
2021/12/31 08:58:14;;;;;;;3.78;2.40;;;9.50;96.70;;;;;;5076537;28;20421;-72
2021/12/31 09:00:44;;;;;;;2.30;2.10;;;9.60;96.70;;;;;;5077360;28;20072;-71
2021/12/31 09:03:12;;;;;;;2.65;2.30;;;9.60;96.70;;;;;;5076957;28;20039;-74
2021/12/31 09:05:41;;;;;;;3.63;2.42;;;9.70;96.70;;;;;;5076236;28;20043;-74
2021/12/31 09:08:09;;;;;;;3.50;2.30;;;9.60;96.70;;;;;;5076796;28;20580;-72
2021/12/31 09:10:37;;;;;;;3.22;2.92;;;9.70;96.70;;;;;;5076255;28;20063;-72
2021/12/31 09:13:05;;;;;;;3.65;2.38;;;9.80;96.70;;;;;;5075918;28;20485;-73
2021/12/31 09:15:33;;;;;;;3.58;3.03;;;9.80;96.70;;;;;;5078432;28;20128;-73
2021/12/31 09:18:03;;;;;;;6.75;4.75;;;9.90;96.70;;;;;;5093767;28;20040;-73
2021/12/31 09:20:31;;;;;;;4.43;3.55;;;9.90;96.70;;;;;;5077006;28;20048;-74
2021/12/31 09:22:59;;;;;;;3.75;3.35;;;10.00;96.70;;;;;;5076106;28;20036;-73
2021/12/31 09:25:27;;;;;;;27.63;20.80;;;10.00;96.70;;;;;;5081671;28;20048;-71
2021/12/31 09:28:02;;;;;;;5.78;5.18;;;10.10;96.70;;;;;;5072841;28;20056;-72
2021/12/31 09:30:36;;;;;;;5.95;4.63;;;10.20;96.70;;;;;;5074519;28;20139;-71
2021/12/31 09:33:08;;;;;;;4.65;4.00;;;10.20;96.70;;;;;;5075700;28;20037;-72
2021/12/31 09:35:42;;;;;;;4.10;3.45;;;10.30;96.70;;;;;;5077048;28;20048;-72
2021/12/31 09:38:10;;;;;;;4.07;2.97;;;10.40;96.70;;;;;;5071345;28;20039;-71
2021/12/31 09:40:39;;;;;;;3.53;3.22;;;10.40;96.70;;;;;;5075098;28;20048;-71
2021/12/31 09:43:12;;;;;;;4.90;3.60;;;10.50;96.70;;;;;;5078413;28;20098;-71
2021/12/31 09:45:44;;;;;;;5.15;3.65;;;10.50;96.70;;;;;;5071957;28;20123;-72
2021/12/31 09:48:19;;;;;;;4.60;3.60;;;10.60;96.70;;;;;;5075357;28;20091;-71
2021/12/31 09:50:53;;;;;;;6.18;4.03;;;10.60;96.70;;;;;;5075157;28;20137;-72
2021/12/31 09:53:23;;;;;;;4.65;3.67;;;10.80;96.70;;;;;;5080019;28;20048;-72
2021/12/31 09:55:53;;;;;;;5.30;3.42;;;10.80;96.70;;;;;;5056715;28;20041;-72
2021/12/31 09:58:28;;;;;;;4.72;3.45;;;11.00;96.70;;;;;;5074079;28;20044;-72
2021/12/31 10:01:00;;;;;;;4.10;3.33;;;11.10;96.70;;;;;;5075180;28;20086;-72
2021/12/31 10:03:33;;;;;;;4.13;3.30;;;11.20;96.70;;;;;;5074898;28;20044;-72
2021/12/31 10:06:08;;;;;;;5.30;3.38;;;11.30;96.70;;;;;;5077920;28;20064;-73
2021/12/31 10:08:44;;;;;;;4.50;3.38;;;11.40;96.70;;;;;;5074929;28;20833;-72
2021/12/31 10:11:17;;;;;;;4.30;3.22;;;11.50;96.70;;;;;;5070574;28;20040;-72
2021/12/31 10:13:55;;;;;;;3.67;3.33;;;11.50;96.70;;;;;;5076935;28;20048;-72
2021/12/31 10:16:26;;;;;;;3.60;3.03;;;11.60;96.70;;;;;;5075632;28;20120;-72
2021/12/31 10:19:13;;;;;;;3.67;3.30;;;11.70;96.70;;;;;;5060207;28;20398;-72
2021/12/31 10:21:54;;;;;;;3.90;3.13;;;11.80;96.70;;;;;;5076470;28;20113;-71
2021/12/31 10:24:38;;;;;;;22.70;16.05;;;11.90;96.70;;;;;;5073035;28;20063;-72
2021/12/31 10:27:17;;;;;;;9.73;7.65;;;12.00;96.70;;;;;;5076230;28;20044;-71
2021/12/31 10:29:52;;;;;;;10.50;6.93;;;12.00;96.70;;;;;;5074829;28;20040;-71
2021/12/31 10:32:22;;;;;;;7.53;5.75;;;12.20;96.70;;;;;;5076823;28;20626;-71
2021/12/31 10:34:52;;;;;;;7.68;5.25;;;12.30;96.70;;;;;;5076942;28;20505;-71
2021/12/31 10:37:25;;;;;;;6.53;4.55;;;12.40;96.70;;;;;;5071241;28;20457;-71
2021/12/31 10:39:58;;;;;;;7.65;4.97;;;12.40;96.70;;;;;;5075390;28;20052;-71
2021/12/31 10:42:34;;;;;;;6.78;4.70;;;12.40;96.70;;;;;;5074415;28;20374;-71
2021/12/31 10:45:07;;;;;;;6.10;4.95;;;12.50;96.70;;;;;;5076839;28;20040;-71
2021/12/31 10:47:42;;;;;;;7.50;4.63;;;12.60;96.70;;;;;;5075436;28;20051;-72
2021/12/31 10:50:16;;;;;;;7.63;4.47;;;12.60;96.70;;;;;;5075674;28;20697;-72
2021/12/31 10:52:58;;;;;;;6.78;4.28;;;12.60;96.70;;;;;;5077766;28;20032;-71
2021/12/31 10:55:34;;;;;;;4.78;4.28;;;12.70;96.70;;;;;;5076790;28;20074;-72
2021/12/31 10:58:04;;;;;;;5.72;4.63;;;12.80;96.70;;;;;;5075801;28;20465;-72
2021/12/31 11:00:34;;;;;;;7.47;4.93;;;13.00;96.70;;;;;;5079710;28;20070;-72
2021/12/31 11:03:02;;;;;;;17.00;13.52;;;13.10;96.70;;;;;;5077276;28;20081;-73
2021/12/31 11:05:34;;;;;;;6.70;5.70;;;13.20;96.70;;;;;;5078545;28;20405;-71
2021/12/31 11:08:04;;;;;;;7.00;5.45;;;13.30;96.70;;;;;;5074603;28;20382;-72
2021/12/31 11:10:40;;;;;;;7.43;5.57;;;13.40;96.70;;;;;;5069076;28;20032;-72
2021/12/31 11:13:12;;;;;;;6.82;4.57;;;13.50;96.70;;;;;;5073763;28;20044;-72
2021/12/31 11:15:42;;;;;;;9.65;5.13;;;13.50;96.70;;;;;;5081580;28;20052;-72
2021/12/31 11:18:12;;;;;;;6.80;5.00;;;13.60;96.70;;;;;;5077412;28;20317;-72
2021/12/31 11:20:42;;;;;;;7.65;4.95;;;13.70;96.70;;;;;;5074506;28;20042;-72
2021/12/31 11:23:10;;;;;;;5.65;4.63;;;13.80;96.70;;;;;;5080326;28;20042;-71
2021/12/31 11:25:55;;;;;;;4.70;3.85;;;13.90;96.70;;;;;;5082310;28;20044;-71
2021/12/31 11:28:28;;;;;;;6.15;4.40;;;13.90;96.70;;;;;;5076239;28;20565;-71
2021/12/31 11:30:57;;;;;;;6.28;4.57;;;14.00;96.70;;;;;;5077067;28;20577;-71
2021/12/31 11:33:28;;;;;;;5.65;4.18;;;14.10;96.70;;;;;;5081750;28;20044;-75
2021/12/31 11:36:01;;;;;;;6.03;4.65;;;14.20;96.70;;;;;;5075476;28;20397;-75
2021/12/31 11:38:44;;;;;;;5.47;4.50;;;14.40;96.70;;;;;;5057914;28;20050;-74
2021/12/31 11:41:20;;;;;;;11.52;10.32;;;14.60;96.70;;;;;;5075823;28;20397;-74
2021/12/31 11:44:06;;;;;;;9.68;6.75;;;14.60;96.70;;;;;;5070558;28;20413;-72
2021/12/31 11:46:36;;;;;;;6.15;5.35;;;14.70;96.70;;;;;;5074689;28;20543;-72
2021/12/31 11:49:10;;;;;;;5.07;4.28;;;14.90;96.70;;;;;;5076041;28;20044;-71
2021/12/31 11:51:59;;;;;;;6.22;4.53;;;14.90;96.70;;;;;;5073273;28;20116;-71
2021/12/31 11:54:28;;;;;;;5.90;4.72;;;15.00;96.70;;;;;;5081434;28;20612;-71
2021/12/31 11:57:02;;;;;;;5.60;4.38;;;15.10;96.70;;;;;;5077038;28;20040;-72
2021/12/31 11:59:32;;;;;;;5.82;3.90;;;15.10;96.70;;;;;;5071922;28;20123;-72
2021/12/31 12:02:09;;;;;;;5.80;4.10;;;15.20;96.70;;;;;;5075884;28;20047;-72
2021/12/31 12:04:41;;;;;;;5.28;4.28;;;15.30;96.70;;;;;;5070939;28;20162;-72
2021/12/31 12:07:33;;;;;;;5.43;4.03;;;15.20;96.70;;;;;;5074950;28;20146;-71
2021/12/31 12:10:13;;;;;;;7.15;4.35;;;15.30;96.70;;;;;;5074149;28;20035;-72
2021/12/31 12:12:49;;;;;;;7.00;4.53;;;15.50;96.70;;;;;;5074784;28;20039;-72
2021/12/31 12:15:41;;;;;;;13.02;5.35;;;15.50;96.70;;;;;;5055710;28;20272;-73
2021/12/31 12:18:11;;;;;;;4.88;3.95;;;15.40;96.70;;;;;;5053457;28;20056;-74
2021/12/31 12:20:41;;;;;;;4.22;3.75;;;15.50;96.70;;;;;;5066943;28;20056;-71
2021/12/31 12:23:23;;;;;;;4.82;3.95;;;15.50;96.70;;;;;;5078784;28;20059;-71
2021/12/31 12:25:52;;;;;;;4.43;4.03;;;15.50;96.70;;;;;;5074331;28;20082;-71
2021/12/31 12:28:21;;;;;;;5.35;3.97;;;15.50;96.70;;;;;;5072399;28;20076;-71
2021/12/31 12:31:00;;;;;;;6.28;4.47;;;15.50;96.70;;;;;;5070455;28;20432;-72
2021/12/31 12:33:28;;;;;;;5.90;4.30;;;15.60;96.70;;;;;;5073982;28;20080;-71
2021/12/31 12:36:00;;;;;;;5.32;4.30;;;15.60;96.70;;;;;;5072343;28;20569;-71
2021/12/31 12:38:33;;;;;;;5.15;3.97;;;15.70;96.70;;;;;;5078701;28;20588;-71
2021/12/31 12:41:03;;;;;;;9.60;5.10;;;15.70;96.70;;;;;;5074640;28;20050;-72
2021/12/31 12:43:35;;;;;;;6.32;5.47;;;15.90;96.70;;;;;;5072066;28;20401;-72
2021/12/31 12:46:05;;;;;;;6.40;4.45;;;16.00;96.70;;;;;;5075630;28;20094;-72
2021/12/31 12:48:36;;;;;;;6.20;5.05;;;16.10;96.70;;;;;;5080668;28;20375;-72
2021/12/31 12:51:07;;;;;;;5.05;4.55;;;16.10;96.70;;;;;;5069769;28;20047;-72
2021/12/31 12:53:38;;;;;;;6.03;4.63;;;16.20;96.70;;;;;;5070832;28;20466;-72
2021/12/31 12:56:09;;;;;;;7.35;4.18;;;16.30;96.70;;;;;;5065687;28;20466;-74
2021/12/31 12:58:40;;;;;;;5.82;4.50;;;16.30;96.70;;;;;;5073148;28;20139;-73
2021/12/31 13:01:10;;;;;;;5.38;4.57;;;16.30;96.70;;;;;;5074633;28;20573;-72
2021/12/31 13:03:52;;;;;;;7.10;4.30;;;16.30;96.70;;;;;;5071791;28;20127;-72
2021/12/31 13:06:25;;;;;;;6.65;5.30;;;16.40;96.70;;;;;;5071894;28;20044;-71
2021/12/31 13:09:10;;;;;;;5.15;4.45;;;16.50;96.70;;;;;;5072001;28;20046;-71
2021/12/31 13:11:40;;;;;;;5.32;3.97;;;16.50;96.70;;;;;;5074800;28;20139;-71
2021/12/31 13:14:13;;;;;;;5.82;4.13;;;16.50;96.70;;;;;;5082012;28;20451;-72